sensor_id;sensor_type;location;lat;lon;timestamp;P1;durP1;ratioP1;P2;durP2;ratioP2
8478;SDS011;4276;49.354;6.804;2024-03-23T00:54:00;19.42;;;17.52;;
8478;SDS011;4276;49.354;6.804;2024-03-23T00:56:26;19.90;;;17.85;;
8478;SDS011;4276;49.354;6.804;2024-03-23T00:58:51;19.52;;;17.63;;
8478;SDS011;4276;49.354;6.804;2024-03-23T01:01:17;20.60;;;18.52;;
8478;SDS011;4276;49.354;6.804;2024-03-23T01:03:42;19.77;;;17.88;;
8478;SDS011;4276;49.354;6.804;2024-03-23T01:06:08;20.02;;;18.02;;
8478;SDS011;4276;49.354;6.804;2024-03-23T01:08:33;20.55;;;18.30;;
8478;SDS011;4276;49.354;6.804;2024-03-23T01:11:00;19.30;;;16.77;;
8478;SDS011;4276;49.354;6.804;2024-03-23T01:13:27;19.15;;;17.15;;
8478;SDS011;4276;49.354;6.804;2024-03-23T01:15:53;18.58;;;16.83;;
8478;SDS011;4276;49.354;6.804;2024-03-23T01:18:19;18.77;;;16.90;;
8478;SDS011;4276;49.354;6.804;2024-03-23T01:20:45;19.38;;;17.38;;
8478;SDS011;4276;49.354;6.804;2024-03-23T01:23:11;19.17;;;17.17;;
8478;SDS011;4276;49.354;6.804;2024-03-23T01:25:37;18.77;;;16.88;;
8478;SDS011;4276;49.354;6.804;2024-03-23T01:28:03;19.52;;;17.52;;
8478;SDS011;4276;49.354;6.804;2024-03-23T01:30:29;19.83;;;17.75;;
8478;SDS011;4276;49.354;6.804;2024-03-23T01:32:56;18.23;;;16.42;;
8478;SDS011;4276;49.354;6.804;2024-03-23T01:35:21;19.13;;;17.23;;
8478;SDS011;4276;49.354;6.804;2024-03-23T01:37:47;19.02;;;17.02;;
8478;SDS011;4276;49.354;6.804;2024-03-23T01:40:12;19.30;;;17.40;;
8478;SDS011;4276;49.354;6.804;2024-03-23T01:42:41;21.42;;;19.05;;
8478;SDS011;4276;49.354;6.804;2024-03-23T01:45:07;20.55;;;18.52;;
8478;SDS011;4276;49.354;6.804;2024-03-23T01:47:33;18.58;;;16.67;;
8478;SDS011;4276;49.354;6.804;2024-03-23T01:49:59;16.65;;;15.05;;
8478;SDS011;4276;49.354;6.804;2024-03-23T01:52:25;18.63;;;16.38;;
8478;SDS011;4276;49.354;6.804;2024-03-23T01:54:52;16.63;;;14.93;;
8478;SDS011;4276;49.354;6.804;2024-03-23T01:57:18;14.88;;;13.43;;
8478;SDS011;4276;49.354;6.804;2024-03-23T01:59:45;13.75;;;12.35;;
8478;SDS011;4276;49.354;6.804;2024-03-23T02:02:11;14.55;;;12.80;;
8478;SDS011;4276;49.354;6.804;2024-03-23T02:04:37;13.88;;;12.38;;
8478;SDS011;4276;49.354;6.804;2024-03-23T02:07:02;12.57;;;11.30;;
8478;SDS011;4276;49.354;6.804;2024-03-23T02:09:30;12.15;;;11.02;;
8478;SDS011;4276;49.354;6.804;2024-03-23T02:11:57;12.00;;;10.90;;
8478;SDS011;4276;49.354;6.804;2024-03-23T02:14:23;11.75;;;10.65;;
8478;SDS011;4276;49.354;6.804;2024-03-23T02:16:48;12.20;;;10.98;;
8478;SDS011;4276;49.354;6.804;2024-03-23T02:19:14;12.30;;;11.07;;
8478;SDS011;4276;49.354;6.804;2024-03-23T02:21:39;13.27;;;11.98;;
8478;SDS011;4276;49.354;6.804;2024-03-23T02:24:05;13.93;;;12.52;;
8478;SDS011;4276;49.354;6.804;2024-03-23T02:26:30;12.65;;;11.35;;
8478;SDS011;4276;49.354;6.804;2024-03-23T02:28:56;12.07;;;10.98;;
8478;SDS011;4276;49.354;6.804;2024-03-23T02:31:21;15.85;;;12.48;;
8478;SDS011;4276;49.354;6.804;2024-03-23T02:33:47;13.90;;;12.40;;
8478;SDS011;4276;49.354;6.804;2024-03-23T02:36:13;13.88;;;12.48;;
8478;SDS011;4276;49.354;6.804;2024-03-23T02:38:38;13.63;;;12.13;;
8478;SDS011;4276;49.354;6.804;2024-03-23T02:41:04;14.00;;;12.70;;
8478;SDS011;4276;49.354;6.804;2024-03-23T02:43:30;13.57;;;12.20;;
8478;SDS011;4276;49.354;6.804;2024-03-23T02:45:55;13.60;;;12.30;;
8478;SDS011;4276;49.354;6.804;2024-03-23T02:48:21;13.45;;;12.02;;
8478;SDS011;4276;49.354;6.804;2024-03-23T02:50:46;12.80;;;11.50;;
8478;SDS011;4276;49.354;6.804;2024-03-23T02:53:12;11.73;;;10.68;;
8478;SDS011;4276;49.354;6.804;2024-03-23T02:55:38;11.43;;;10.23;;
8478;SDS011;4276;49.354;6.804;2024-03-23T02:58:03;10.63;;;8.18;;
8478;SDS011;4276;49.354;6.804;2024-03-23T03:00:29;7.38;;;6.78;;
8478;SDS011;4276;49.354;6.804;2024-03-23T03:02:55;6.55;;;5.78;;
8478;SDS011;4276;49.354;6.804;2024-03-23T03:05:21;5.03;;;4.57;;
8478;SDS011;4276;49.354;6.804;2024-03-23T03:07:47;6.15;;;4.60;;
8478;SDS011;4276;49.354;6.804;2024-03-23T03:10:12;3.97;;;3.67;;
8478;SDS011;4276;49.354;6.804;2024-03-23T03:12:38;3.50;;;3.30;;
8478;SDS011;4276;49.354;6.804;2024-03-23T03:15:04;3.50;;;3.20;;
8478;SDS011;4276;49.354;6.804;2024-03-23T03:17:30;4.00;;;2.55;;
8478;SDS011;4276;49.354;6.804;2024-03-23T03:19:56;2.63;;;2.42;;
8478;SDS011;4276;49.354;6.804;2024-03-23T03:22:22;2.78;;;2.53;;
8478;SDS011;4276;49.354;6.804;2024-03-23T03:24:47;1.88;;;1.77;;
8478;SDS011;4276;49.354;6.804;2024-03-23T03:27:13;1.80;;;1.70;;
8478;SDS011;4276;49.354;6.804;2024-03-23T03:29:39;1.60;;;1.50;;
8478;SDS011;4276;49.354;6.804;2024-03-23T03:32:05;1.60;;;1.50;;
8478;SDS011;4276;49.354;6.804;2024-03-23T03:34:30;1.30;;;1.13;;
8478;SDS011;4276;49.354;6.804;2024-03-23T03:36:56;1.10;;;1.10;;
8478;SDS011;4276;49.354;6.804;2024-03-23T03:39:22;1.10;;;1.10;;
8478;SDS011;4276;49.354;6.804;2024-03-23T03:41:48;1.20;;;1.20;;
8478;SDS011;4276;49.354;6.804;2024-03-23T03:44:14;0.90;;;0.90;;
8478;SDS011;4276;49.354;6.804;2024-03-23T03:46:40;1.00;;;1.00;;
8478;SDS011;4276;49.354;6.804;2024-03-23T03:49:05;0.98;;;0.98;;
8478;SDS011;4276;49.354;6.804;2024-03-23T03:51:31;1.10;;;1.10;;
8478;SDS011;4276;49.354;6.804;2024-03-23T03:53:56;1.10;;;1.10;;
8478;SDS011;4276;49.354;6.804;2024-03-23T03:56:22;1.30;;;1.30;;
8478;SDS011;4276;49.354;6.804;2024-03-23T03:58:48;1.42;;;1.40;;
8478;SDS011;4276;49.354;6.804;2024-03-23T04:01:13;1.42;;;1.38;;
8478;SDS011;4276;49.354;6.804;2024-03-23T04:03:39;1.58;;;1.48;;
8478;SDS011;4276;49.354;6.804;2024-03-23T04:06:09;1.65;;;1.50;;
8478;SDS011;4276;49.354;6.804;2024-03-23T04:08:35;2.28;;;2.13;;
8478;SDS011;4276;49.354;6.804;2024-03-23T04:11:00;1.90;;;1.80;;
8478;SDS011;4276;49.354;6.804;2024-03-23T04:13:26;1.85;;;1.60;;
8478;SDS011;4276;49.354;6.804;2024-03-23T04:15:55;1.45;;;1.35;;
8478;SDS011;4276;49.354;6.804;2024-03-23T04:18:22;1.10;;;1.10;;
8478;SDS011;4276;49.354;6.804;2024-03-23T04:20:48;1.20;;;1.20;;
8478;SDS011;4276;49.354;6.804;2024-03-23T04:23:14;1.00;;;1.00;;
8478;SDS011;4276;49.354;6.804;2024-03-23T04:25:39;2.30;;;1.08;;
8478;SDS011;4276;49.354;6.804;2024-03-23T04:28:05;1.42;;;1.10;;
8478;SDS011;4276;49.354;6.804;2024-03-23T04:30:31;1.15;;;1.15;;
8478;SDS011;4276;49.354;6.804;2024-03-23T04:32:57;1.52;;;1.40;;
8478;SDS011;4276;49.354;6.804;2024-03-23T04:35:23;1.92;;;1.70;;
8478;SDS011;4276;49.354;6.804;2024-03-23T04:37:50;1.40;;;1.40;;
8478;SDS011;4276;49.354;6.804;2024-03-23T04:40:17;1.30;;;1.30;;
8478;SDS011;4276;49.354;6.804;2024-03-23T04:42:43;1.55;;;1.42;;
8478;SDS011;4276;49.354;6.804;2024-03-23T04:45:09;1.50;;;1.50;;
8478;SDS011;4276;49.354;6.804;2024-03-23T04:47:37;1.30;;;1.30;;
8478;SDS011;4276;49.354;6.804;2024-03-23T04:50:06;1.25;;;1.25;;
8478;SDS011;4276;49.354;6.804;2024-03-23T04:52:32;1.25;;;1.25;;
8478;SDS011;4276;49.354;6.804;2024-03-23T04:54:57;1.52;;;1.50;;
8478;SDS011;4276;49.354;6.804;2024-03-23T04:57:23;1.50;;;1.40;;
8478;SDS011;4276;49.354;6.804;2024-03-23T04:59:48;1.85;;;1.75;;
8478;SDS011;4276;49.354;6.804;2024-03-23T05:02:14;1.23;;;1.23;;
8478;SDS011;4276;49.354;6.804;2024-03-23T05:04:40;1.40;;;1.40;;
8478;SDS011;4276;49.354;6.804;2024-03-23T05:07:06;1.42;;;1.40;;
8478;SDS011;4276;49.354;6.804;2024-03-23T05:09:32;1.58;;;1.58;;
8478;SDS011;4276;49.354;6.804;2024-03-23T05:12:01;1.40;;;1.40;;
8478;SDS011;4276;49.354;6.804;2024-03-23T05:14:27;1.40;;;1.27;;
8478;SDS011;4276;49.354;6.804;2024-03-23T05:16:53;1.27;;;1.17;;
8478;SDS011;4276;49.354;6.804;2024-03-23T05:19:19;1.30;;;1.30;;
8478;SDS011;4276;49.354;6.804;2024-03-23T05:21:45;1.23;;;1.23;;
8478;SDS011;4276;49.354;6.804;2024-03-23T05:24:11;1.05;;;1.05;;
8478;SDS011;4276;49.354;6.804;2024-03-23T05:26:37;0.98;;;0.98;;
8478;SDS011;4276;49.354;6.804;2024-03-23T05:29:03;1.20;;;1.20;;
8478;SDS011;4276;49.354;6.804;2024-03-23T05:31:30;1.30;;;1.30;;
8478;SDS011;4276;49.354;6.804;2024-03-23T05:33:56;1.45;;;1.40;;
8478;SDS011;4276;49.354;6.804;2024-03-23T05:36:22;1.45;;;1.40;;
8478;SDS011;4276;49.354;6.804;2024-03-23T05:38:49;1.75;;;1.30;;
8478;SDS011;4276;49.354;6.804;2024-03-23T05:41:15;1.52;;;1.42;;
8478;SDS011;4276;49.354;6.804;2024-03-23T05:43:40;2.72;;;2.53;;
8478;SDS011;4276;49.354;6.804;2024-03-23T05:46:06;3.35;;;2.55;;
8478;SDS011;4276;49.354;6.804;2024-03-23T05:48:33;3.70;;;3.38;;
8478;SDS011;4276;49.354;6.804;2024-03-23T05:50:58;3.30;;;2.67;;
8478;SDS011;4276;49.354;6.804;2024-03-23T05:53:24;3.60;;;2.55;;
8478;SDS011;4276;49.354;6.804;2024-03-23T05:55:50;3.30;;;2.28;;
8478;SDS011;4276;49.354;6.804;2024-03-23T05:58:18;4.55;;;2.05;;
8478;SDS011;4276;49.354;6.804;2024-03-23T06:00:45;3.13;;;2.30;;
8478;SDS011;4276;49.354;6.804;2024-03-23T06:03:11;2.75;;;2.10;;
8478;SDS011;4276;49.354;6.804;2024-03-23T06:05:37;5.38;;;2.15;;
8478;SDS011;4276;49.354;6.804;2024-03-23T06:08:03;2.53;;;2.42;;
8478;SDS011;4276;49.354;6.804;2024-03-23T06:10:29;2.95;;;2.65;;
8478;SDS011;4276;49.354;6.804;2024-03-23T06:12:54;3.05;;;2.55;;
8478;SDS011;4276;49.354;6.804;2024-03-23T06:15:21;4.65;;;2.75;;
8478;SDS011;4276;49.354;6.804;2024-03-23T06:17:47;4.07;;;2.88;;
8478;SDS011;4276;49.354;6.804;2024-03-23T06:20:13;2.60;;;2.38;;
8478;SDS011;4276;49.354;6.804;2024-03-23T06:22:39;3.55;;;2.80;;
8478;SDS011;4276;49.354;6.804;2024-03-23T06:25:05;2.88;;;2.65;;
8478;SDS011;4276;49.354;6.804;2024-03-23T06:27:31;4.35;;;3.15;;
8478;SDS011;4276;49.354;6.804;2024-03-23T06:29:58;3.38;;;2.92;;
8478;SDS011;4276;49.354;6.804;2024-03-23T06:32:24;3.50;;;3.20;;
8478;SDS011;4276;49.354;6.804;2024-03-23T06:34:49;5.07;;;3.70;;
8478;SDS011;4276;49.354;6.804;2024-03-23T06:37:15;4.82;;;3.97;;
8478;SDS011;4276;49.354;6.804;2024-03-23T06:39:40;3.67;;;3.38;;
8478;SDS011;4276;49.354;6.804;2024-03-23T06:42:06;4.55;;;3.90;;
8478;SDS011;4276;49.354;6.804;2024-03-23T06:44:33;5.97;;;3.80;;
8478;SDS011;4276;49.354;6.804;2024-03-23T06:46:59;7.75;;;4.47;;
8478;SDS011;4276;49.354;6.804;2024-03-23T06:49:24;6.75;;;5.03;;
8478;SDS011;4276;49.354;6.804;2024-03-23T06:51:50;5.70;;;4.20;;
8478;SDS011;4276;49.354;6.804;2024-03-23T06:54:16;6.38;;;3.90;;
8478;SDS011;4276;49.354;6.804;2024-03-23T06:56:43;7.00;;;4.40;;
8478;SDS011;4276;49.354;6.804;2024-03-23T06:59:09;4.80;;;4.30;;
8478;SDS011;4276;49.354;6.804;2024-03-23T07:01:35;6.47;;;4.35;;
8478;SDS011;4276;49.354;6.804;2024-03-23T07:04:01;7.95;;;4.90;;
8478;SDS011;4276;49.354;6.804;2024-03-23T07:06:26;5.40;;;4.60;;
8478;SDS011;4276;49.354;6.804;2024-03-23T07:08:52;6.70;;;4.55;;
8478;SDS011;4276;49.354;6.804;2024-03-23T07:11:18;8.52;;;4.93;;
8478;SDS011;4276;49.354;6.804;2024-03-23T07:13:45;8.75;;;5.35;;
8478;SDS011;4276;49.354;6.804;2024-03-23T07:16:11;7.03;;;5.50;;
8478;SDS011;4276;49.354;6.804;2024-03-23T07:18:39;9.15;;;5.18;;
8478;SDS011;4276;49.354;6.804;2024-03-23T07:21:05;6.80;;;5.25;;
8478;SDS011;4276;49.354;6.804;2024-03-23T07:23:32;9.75;;;5.20;;
8478;SDS011;4276;49.354;6.804;2024-03-23T07:25:58;7.63;;;5.68;;
8478;SDS011;4276;49.354;6.804;2024-03-23T07:28:30;6.40;;;5.40;;
8478;SDS011;4276;49.354;6.804;2024-03-23T07:33:29;8.70;;;5.70;;
8478;SDS011;4276;49.354;6.804;2024-03-23T07:35:55;7.32;;;5.97;;
8478;SDS011;4276;49.354;6.804;2024-03-23T07:38:20;8.07;;;6.95;;
8478;SDS011;4276;49.354;6.804;2024-03-23T07:40:46;8.55;;;6.38;;
8478;SDS011;4276;49.354;6.804;2024-03-23T07:43:11;9.68;;;7.07;;
8478;SDS011;4276;49.354;6.804;2024-03-23T07:45:37;12.27;;;8.23;;
8478;SDS011;4276;49.354;6.804;2024-03-23T07:48:03;8.27;;;6.55;;
8478;SDS011;4276;49.354;6.804;2024-03-23T07:50:29;10.05;;;7.43;;
8478;SDS011;4276;49.354;6.804;2024-03-23T07:52:55;10.18;;;5.97;;
8478;SDS011;4276;49.354;6.804;2024-03-23T07:55:20;6.60;;;4.72;;
8478;SDS011;4276;49.354;6.804;2024-03-23T07:57:46;7.93;;;4.47;;
8478;SDS011;4276;49.354;6.804;2024-03-23T08:00:12;11.50;;;5.90;;
8478;SDS011;4276;49.354;6.804;2024-03-23T08:02:38;11.05;;;6.75;;
8478;SDS011;4276;49.354;6.804;2024-03-23T08:05:04;9.10;;;6.13;;
8478;SDS011;4276;49.354;6.804;2024-03-23T08:07:30;9.80;;;6.22;;
8478;SDS011;4276;49.354;6.804;2024-03-23T08:09:55;10.90;;;5.93;;
8478;SDS011;4276;49.354;6.804;2024-03-23T08:12:21;13.70;;;6.85;;
8478;SDS011;4276;49.354;6.804;2024-03-23T08:14:46;9.95;;;6.43;;
8478;SDS011;4276;49.354;6.804;2024-03-23T08:17:12;14.27;;;6.63;;
8478;SDS011;4276;49.354;6.804;2024-03-23T08:19:38;9.07;;;5.38;;
8478;SDS011;4276;49.354;6.804;2024-03-23T08:22:03;6.43;;;3.92;;
8478;SDS011;4276;49.354;6.804;2024-03-23T08:24:29;4.80;;;3.85;;
8478;SDS011;4276;49.354;6.804;2024-03-23T08:26:55;5.20;;;4.03;;
8478;SDS011;4276;49.354;6.804;2024-03-23T08:29:21;5.20;;;4.18;;
8478;SDS011;4276;49.354;6.804;2024-03-23T08:31:46;6.65;;;4.25;;
8478;SDS011;4276;49.354;6.804;2024-03-23T08:34:12;4.93;;;4.22;;
8478;SDS011;4276;49.354;6.804;2024-03-23T08:36:37;8.70;;;4.80;;
8478;SDS011;4276;49.354;6.804;2024-03-23T08:39:03;4.78;;;3.42;;
8478;SDS011;4276;49.354;6.804;2024-03-23T08:41:28;4.55;;;3.17;;
8478;SDS011;4276;49.354;6.804;2024-03-23T08:43:55;3.53;;;3.22;;
8478;SDS011;4276;49.354;6.804;2024-03-23T08:46:21;5.82;;;3.45;;
8478;SDS011;4276;49.354;6.804;2024-03-23T08:48:46;5.25;;;3.25;;
8478;SDS011;4276;49.354;6.804;2024-03-23T08:51:14;4.03;;;3.38;;
8478;SDS011;4276;49.354;6.804;2024-03-23T08:53:41;5.38;;;4.05;;
8478;SDS011;4276;49.354;6.804;2024-03-23T08:56:07;7.03;;;4.20;;
8478;SDS011;4276;49.354;6.804;2024-03-23T08:58:34;6.75;;;4.57;;
8478;SDS011;4276;49.354;6.804;2024-03-23T09:01:04;7.40;;;5.40;;
8478;SDS011;4276;49.354;6.804;2024-03-23T09:03:30;5.55;;;3.95;;
8478;SDS011;4276;49.354;6.804;2024-03-23T09:05:56;7.00;;;4.80;;
8478;SDS011;4276;49.354;6.804;2024-03-23T09:08:23;6.53;;;4.72;;
8478;SDS011;4276;49.354;6.804;2024-03-23T09:10:49;5.50;;;4.15;;
8478;SDS011;4276;49.354;6.804;2024-03-23T09:13:14;5.85;;;3.60;;
8478;SDS011;4276;49.354;6.804;2024-03-23T09:15:48;4.78;;;3.58;;
8478;SDS011;4276;49.354;6.804;2024-03-23T09:18:15;5.75;;;4.05;;
8478;SDS011;4276;49.354;6.804;2024-03-23T09:20:41;6.50;;;3.80;;
8478;SDS011;4276;49.354;6.804;2024-03-23T09:23:06;4.78;;;3.60;;
8478;SDS011;4276;49.354;6.804;2024-03-23T09:25:35;3.97;;;3.30;;
8478;SDS011;4276;49.354;6.804;2024-03-23T09:28:01;4.53;;;3.40;;
8478;SDS011;4276;49.354;6.804;2024-03-23T09:30:27;4.85;;;3.08;;
8478;SDS011;4276;49.354;6.804;2024-03-23T09:32:52;3.65;;;3.22;;
8478;SDS011;4276;49.354;6.804;2024-03-23T09:35:18;3.88;;;3.10;;
8478;SDS011;4276;49.354;6.804;2024-03-23T09:37:44;6.82;;;3.25;;
8478;SDS011;4276;49.354;6.804;2024-03-23T09:40:10;8.70;;;3.38;;
8478;SDS011;4276;49.354;6.804;2024-03-23T09:42:36;5.32;;;3.80;;
8478;SDS011;4276;49.354;6.804;2024-03-23T09:45:02;7.10;;;3.90;;
8478;SDS011;4276;49.354;6.804;2024-03-23T09:47:31;5.65;;;3.30;;
8478;SDS011;4276;49.354;6.804;2024-03-23T09:49:56;4.93;;;3.53;;
8478;SDS011;4276;49.354;6.804;2024-03-23T09:52:22;6.70;;;3.35;;
8478;SDS011;4276;49.354;6.804;2024-03-23T09:54:47;8.32;;;3.78;;
8478;SDS011;4276;49.354;6.804;2024-03-23T09:57:13;7.88;;;3.17;;
8478;SDS011;4276;49.354;6.804;2024-03-23T09:59:39;3.65;;;3.33;;
8478;SDS011;4276;49.354;6.804;2024-03-23T10:02:04;6.22;;;3.28;;
8478;SDS011;4276;49.354;6.804;2024-03-23T10:07:12;5.25;;;3.20;;
8478;SDS011;4276;49.354;6.804;2024-03-23T10:09:43;6.47;;;3.42;;
8478;SDS011;4276;49.354;6.804;2024-03-23T10:12:17;5.05;;;3.17;;
8478;SDS011;4276;49.354;6.804;2024-03-23T10:14:44;9.40;;;3.88;;
8478;SDS011;4276;49.354;6.804;2024-03-23T10:17:16;5.28;;;3.67;;
8478;SDS011;4276;49.354;6.804;2024-03-23T10:19:50;5.93;;;3.58;;
8478;SDS011;4276;49.354;6.804;2024-03-23T10:22:20;7.82;;;4.35;;
8478;SDS011;4276;49.354;6.804;2024-03-23T10:24:47;4.47;;;3.55;;
8478;SDS011;4276;49.354;6.804;2024-03-23T10:27:17;4.97;;;3.70;;
8478;SDS011;4276;49.354;6.804;2024-03-23T10:29:44;6.43;;;3.67;;
8478;SDS011;4276;49.354;6.804;2024-03-23T10:32:14;4.68;;;2.78;;
8478;SDS011;4276;49.354;6.804;2024-03-23T10:34:41;3.90;;;2.55;;
8478;SDS011;4276;49.354;6.804;2024-03-23T10:37:07;5.07;;;3.00;;
8478;SDS011;4276;49.354;6.804;2024-03-23T10:39:34;6.65;;;3.22;;
8478;SDS011;4276;49.354;6.804;2024-03-23T10:42:04;8.50;;;6.28;;
8478;SDS011;4276;49.354;6.804;2024-03-23T10:44:31;9.50;;;6.22;;
8478;SDS011;4276;49.354;6.804;2024-03-23T10:46:57;9.35;;;5.85;;
8478;SDS011;4276;49.354;6.804;2024-03-23T10:49:29;7.53;;;5.38;;
8478;SDS011;4276;49.354;6.804;2024-03-23T10:52:00;8.30;;;5.63;;
8478;SDS011;4276;49.354;6.804;2024-03-23T10:54:26;9.10;;;6.20;;
8478;SDS011;4276;49.354;6.804;2024-03-23T10:57:06;12.18;;;7.65;;
8478;SDS011;4276;49.354;6.804;2024-03-23T10:59:33;9.38;;;8.07;;
8478;SDS011;4276;49.354;6.804;2024-03-23T11:01:59;5.13;;;3.42;;
8478;SDS011;4276;49.354;6.804;2024-03-23T11:04:34;4.32;;;3.15;;
8478;SDS011;4276;49.354;6.804;2024-03-23T11:07:01;5.47;;;2.50;;
8478;SDS011;4276;49.354;6.804;2024-03-23T11:09:43;4.00;;;2.50;;
8478;SDS011;4276;49.354;6.804;2024-03-23T11:14:50;4.20;;;3.03;;
8478;SDS011;4276;49.354;6.804;2024-03-23T11:17:23;5.68;;;4.07;;
8478;SDS011;4276;49.354;6.804;2024-03-23T11:19:53;8.65;;;5.05;;
8478;SDS011;4276;49.354;6.804;2024-03-23T11:22:37;4.90;;;3.25;;
8478;SDS011;4276;49.354;6.804;2024-03-23T11:27:43;2.05;;;1.90;;
8478;SDS011;4276;49.354;6.804;2024-03-23T11:30:11;2.15;;;1.83;;
8478;SDS011;4276;49.354;6.804;2024-03-23T11:32:51;1.70;;;1.60;;
8478;SDS011;4276;49.354;6.804;2024-03-23T11:38:10;1.65;;;1.60;;
8478;SDS011;4276;49.354;6.804;2024-03-23T11:43:06;2.40;;;2.28;;
8478;SDS011;4276;49.354;6.804;2024-03-23T11:45:38;3.35;;;2.40;;
8478;SDS011;4276;49.354;6.804;2024-03-23T11:48:09;1.63;;;1.50;;
8478;SDS011;4276;49.354;6.804;2024-03-23T11:50:39;1.70;;;1.55;;
8478;SDS011;4276;49.354;6.804;2024-03-23T11:55:38;2.15;;;1.50;;
8478;SDS011;4276;49.354;6.804;2024-03-23T11:58:25;3.63;;;1.92;;
8478;SDS011;4276;49.354;6.804;2024-03-23T12:00:52;3.17;;;1.88;;
8478;SDS011;4276;49.354;6.804;2024-03-23T12:03:18;2.08;;;1.65;;
8478;SDS011;4276;49.354;6.804;2024-03-23T12:05:50;2.40;;;2.00;;
8478;SDS011;4276;49.354;6.804;2024-03-23T12:08:19;4.57;;;2.35;;
8478;SDS011;4276;49.354;6.804;2024-03-23T12:10:52;2.30;;;2.08;;
8478;SDS011;4276;49.354;6.804;2024-03-23T12:13:19;2.72;;;2.50;;
8478;SDS011;4276;49.354;6.804;2024-03-23T12:15:46;3.97;;;2.33;;
8478;SDS011;4276;49.354;6.804;2024-03-23T12:18:13;2.70;;;2.00;;
8478;SDS011;4276;49.354;6.804;2024-03-23T12:20:39;2.58;;;2.10;;
8478;SDS011;4276;49.354;6.804;2024-03-23T12:23:05;2.92;;;1.90;;
8478;SDS011;4276;49.354;6.804;2024-03-23T12:25:35;3.05;;;2.65;;
8478;SDS011;4276;49.354;6.804;2024-03-23T12:28:01;3.30;;;2.60;;
8478;SDS011;4276;49.354;6.804;2024-03-23T12:30:27;4.90;;;2.58;;
8478;SDS011;4276;49.354;6.804;2024-03-23T12:32:53;3.85;;;2.50;;
8478;SDS011;4276;49.354;6.804;2024-03-23T12:35:19;5.57;;;2.50;;
8478;SDS011;4276;49.354;6.804;2024-03-23T12:37:44;4.47;;;3.22;;
8478;SDS011;4276;49.354;6.804;2024-03-23T12:40:10;6.10;;;3.45;;
8478;SDS011;4276;49.354;6.804;2024-03-23T12:42:36;3.85;;;2.30;;
8478;SDS011;4276;49.354;6.804;2024-03-23T12:45:02;3.63;;;2.40;;
8478;SDS011;4276;49.354;6.804;2024-03-23T12:47:29;4.25;;;2.47;;
8478;SDS011;4276;49.354;6.804;2024-03-23T12:49:55;4.25;;;2.28;;
8478;SDS011;4276;49.354;6.804;2024-03-23T12:52:21;2.75;;;1.85;;
8478;SDS011;4276;49.354;6.804;2024-03-23T12:54:49;3.33;;;1.60;;
8478;SDS011;4276;49.354;6.804;2024-03-23T12:57:14;3.88;;;2.35;;
8478;SDS011;4276;49.354;6.804;2024-03-23T12:59:40;3.58;;;2.15;;
8478;SDS011;4276;49.354;6.804;2024-03-23T13:02:05;2.42;;;2.03;;
8478;SDS011;4276;49.354;6.804;2024-03-23T13:04:32;2.00;;;1.77;;
8478;SDS011;4276;49.354;6.804;2024-03-23T13:06:58;2.70;;;2.17;;
8478;SDS011;4276;49.354;6.804;2024-03-23T13:09:23;3.45;;;2.10;;
8478;SDS011;4276;49.354;6.804;2024-03-23T13:11:49;2.35;;;2.15;;
8478;SDS011;4276;49.354;6.804;2024-03-23T13:14:14;3.53;;;2.20;;
8478;SDS011;4276;49.354;6.804;2024-03-23T13:16:42;3.33;;;2.75;;
8478;SDS011;4276;49.354;6.804;2024-03-23T13:19:07;4.82;;;2.75;;
8478;SDS011;4276;49.354;6.804;2024-03-23T13:21:33;4.78;;;2.60;;
8478;SDS011;4276;49.354;6.804;2024-03-23T13:23:58;2.10;;;1.50;;
8478;SDS011;4276;49.354;6.804;2024-03-23T13:26:24;2.60;;;1.45;;
8478;SDS011;4276;49.354;6.804;2024-03-23T13:28:50;2.28;;;1.98;;
8478;SDS011;4276;49.354;6.804;2024-03-23T13:31:15;3.00;;;2.05;;
8478;SDS011;4276;49.354;6.804;2024-03-23T13:33:41;2.30;;;1.90;;
8478;SDS011;4276;49.354;6.804;2024-03-23T13:36:09;3.10;;;2.13;;
8478;SDS011;4276;49.354;6.804;2024-03-23T13:38:34;2.03;;;1.33;;
8478;SDS011;4276;49.354;6.804;2024-03-23T13:41:00;2.97;;;1.80;;
8478;SDS011;4276;49.354;6.804;2024-03-23T13:43:27;1.70;;;1.60;;
8478;SDS011;4276;49.354;6.804;2024-03-23T13:45:53;4.70;;;2.35;;
8478;SDS011;4276;49.354;6.804;2024-03-23T13:48:20;6.38;;;1.80;;
8478;SDS011;4276;49.354;6.804;2024-03-23T13:50:47;2.20;;;1.80;;
8478;SDS011;4276;49.354;6.804;2024-03-23T13:53:15;3.85;;;2.42;;
8478;SDS011;4276;49.354;6.804;2024-03-23T13:55:47;2.50;;;2.10;;
8478;SDS011;4276;49.354;6.804;2024-03-23T13:58:15;3.17;;;2.35;;
8478;SDS011;4276;49.354;6.804;2024-03-23T14:00:41;3.72;;;2.30;;
8478;SDS011;4276;49.354;6.804;2024-03-23T14:03:10;4.95;;;4.13;;
8478;SDS011;4276;49.354;6.804;2024-03-23T14:05:37;6.85;;;5.13;;
8478;SDS011;4276;49.354;6.804;2024-03-23T14:08:09;4.47;;;3.42;;
8478;SDS011;4276;49.354;6.804;2024-03-23T14:10:35;3.25;;;2.50;;
8478;SDS011;4276;49.354;6.804;2024-03-23T14:13:01;4.07;;;2.90;;
8478;SDS011;4276;49.354;6.804;2024-03-23T14:15:28;6.00;;;3.50;;
8478;SDS011;4276;49.354;6.804;2024-03-23T14:17:55;5.78;;;4.95;;
8478;SDS011;4276;49.354;6.804;2024-03-23T14:20:21;8.13;;;6.13;;
8478;SDS011;4276;49.354;6.804;2024-03-23T14:22:48;8.48;;;5.93;;
8478;SDS011;4276;49.354;6.804;2024-03-23T14:25:13;8.30;;;5.60;;
8478;SDS011;4276;49.354;6.804;2024-03-23T14:27:39;7.60;;;5.00;;
8478;SDS011;4276;49.354;6.804;2024-03-23T14:30:05;3.30;;;3.00;;
8478;SDS011;4276;49.354;6.804;2024-03-23T14:32:31;4.55;;;3.13;;
8478;SDS011;4276;49.354;6.804;2024-03-23T14:35:05;5.25;;;2.97;;
8478;SDS011;4276;49.354;6.804;2024-03-23T14:37:38;3.00;;;2.70;;
8478;SDS011;4276;49.354;6.804;2024-03-23T14:40:07;2.80;;;2.17;;
8478;SDS011;4276;49.354;6.804;2024-03-23T14:42:33;2.70;;;2.30;;
8478;SDS011;4276;49.354;6.804;2024-03-23T14:44:58;2.78;;;2.38;;
8478;SDS011;4276;49.354;6.804;2024-03-23T14:47:24;3.78;;;2.42;;
8478;SDS011;4276;49.354;6.804;2024-03-23T14:49:49;2.60;;;2.40;;
8478;SDS011;4276;49.354;6.804;2024-03-23T14:52:18;2.90;;;2.33;;
8478;SDS011;4276;49.354;6.804;2024-03-23T14:54:44;4.55;;;3.03;;
8478;SDS011;4276;49.354;6.804;2024-03-23T14:57:09;4.07;;;3.10;;
8478;SDS011;4276;49.354;6.804;2024-03-23T14:59:35;2.63;;;1.42;;
8478;SDS011;4276;49.354;6.804;2024-03-23T15:02:01;1.05;;;1.05;;
8478;SDS011;4276;49.354;6.804;2024-03-23T15:04:27;1.25;;;1.08;;
8478;SDS011;4276;49.354;6.804;2024-03-23T15:06:52;1.35;;;1.17;;
8478;SDS011;4276;49.354;6.804;2024-03-23T15:09:18;1.38;;;1.27;;
8478;SDS011;4276;49.354;6.804;2024-03-23T15:11:44;1.48;;;1.33;;
8478;SDS011;4276;49.354;6.804;2024-03-23T15:14:09;2.05;;;1.25;;
8478;SDS011;4276;49.354;6.804;2024-03-23T15:16:36;2.20;;;1.70;;
8478;SDS011;4276;49.354;6.804;2024-03-23T15:19:02;4.07;;;2.70;;
8478;SDS011;4276;49.354;6.804;2024-03-23T15:21:27;3.75;;;3.42;;
8478;SDS011;4276;49.354;6.804;2024-03-23T15:23:53;6.60;;;5.10;;
8478;SDS011;4276;49.354;6.804;2024-03-23T15:26:18;8.13;;;4.45;;
8478;SDS011;4276;49.354;6.804;2024-03-23T15:28:47;3.65;;;3.20;;
8478;SDS011;4276;49.354;6.804;2024-03-23T15:31:22;3.70;;;2.58;;
8478;SDS011;4276;49.354;6.804;2024-03-23T15:33:47;2.88;;;2.40;;
8478;SDS011;4276;49.354;6.804;2024-03-23T15:36:13;7.13;;;3.67;;
8478;SDS011;4276;49.354;6.804;2024-03-23T15:38:39;4.05;;;3.67;;
8478;SDS011;4276;49.354;6.804;2024-03-23T15:41:04;4.70;;;3.97;;
8478;SDS011;4276;49.354;6.804;2024-03-23T15:43:30;4.43;;;3.53;;
8478;SDS011;4276;49.354;6.804;2024-03-23T15:45:56;3.80;;;3.25;;
8478;SDS011;4276;49.354;6.804;2024-03-23T15:48:26;4.13;;;3.50;;
8478;SDS011;4276;49.354;6.804;2024-03-23T15:50:55;7.55;;;4.10;;
8478;SDS011;4276;49.354;6.804;2024-03-23T15:53:22;9.63;;;3.40;;
8478;SDS011;4276;49.354;6.804;2024-03-23T15:55:54;5.20;;;3.60;;
8478;SDS011;4276;49.354;6.804;2024-03-23T15:58:21;6.75;;;4.00;;
8478;SDS011;4276;49.354;6.804;2024-03-23T16:00:56;6.55;;;3.92;;
8478;SDS011;4276;49.354;6.804;2024-03-23T16:03:25;5.60;;;3.15;;
8478;SDS011;4276;49.354;6.804;2024-03-23T16:05:55;3.97;;;2.92;;
8478;SDS011;4276;49.354;6.804;2024-03-23T16:08:22;2.72;;;2.20;;
8478;SDS011;4276;49.354;6.804;2024-03-23T16:10:48;3.38;;;2.17;;
8478;SDS011;4276;49.354;6.804;2024-03-23T16:13:14;4.25;;;2.60;;
8478;SDS011;4276;49.354;6.804;2024-03-23T16:15:40;3.05;;;2.20;;
8478;SDS011;4276;49.354;6.804;2024-03-23T16:18:05;2.67;;;2.40;;